sensor_id;sensor_type;location;lat;lon;timestamp;P1;durP1;ratioP1;P2;durP2;ratioP2
52180;SDS011;38158;53.338;6.514;2022-10-16T00:00:30;7.90;;;1.30;;
52180;SDS011;38158;53.338;6.514;2022-10-16T00:02:56;4.30;;;1.40;;
52180;SDS011;38158;53.338;6.514;2022-10-16T00:05:22;7.57;;;1.48;;
52180;SDS011;38158;53.338;6.514;2022-10-16T00:07:48;6.55;;;1.40;;
52180;SDS011;38158;53.338;6.514;2022-10-16T00:10:13;7.30;;;1.35;;
52180;SDS011;38158;53.338;6.514;2022-10-16T00:12:39;12.50;;;1.70;;
52180;SDS011;38158;53.338;6.514;2022-10-16T00:15:05;6.68;;;1.27;;
52180;SDS011;38158;53.338;6.514;2022-10-16T00:17:31;5.70;;;1.13;;
52180;SDS011;38158;53.338;6.514;2022-10-16T00:19:57;6.82;;;1.23;;
52180;SDS011;38158;53.338;6.514;2022-10-16T00:22:22;7.15;;;1.42;;
52180;SDS011;38158;53.338;6.514;2022-10-16T00:24:48;10.07;;;1.77;;
52180;SDS011;38158;53.338;6.514;2022-10-16T00:27:14;7.93;;;1.77;;
52180;SDS011;38158;53.338;6.514;2022-10-16T00:29:40;10.10;;;1.50;;
52180;SDS011;38158;53.338;6.514;2022-10-16T00:32:05;10.48;;;1.70;;
52180;SDS011;38158;53.338;6.514;2022-10-16T00:34:31;8.23;;;1.25;;
52180;SDS011;38158;53.338;6.514;2022-10-16T00:36:57;5.20;;;1.30;;
52180;SDS011;38158;53.338;6.514;2022-10-16T00:39:22;10.38;;;1.80;;
52180;SDS011;38158;53.338;6.514;2022-10-16T00:41:48;6.88;;;1.42;;
52180;SDS011;38158;53.338;6.514;2022-10-16T00:47:11;9.15;;;1.30;;
52180;SDS011;38158;53.338;6.514;2022-10-16T00:49:42;5.60;;;1.98;;
52180;SDS011;38158;53.338;6.514;2022-10-16T00:52:08;8.02;;;1.88;;
52180;SDS011;38158;53.338;6.514;2022-10-16T00:54:35;9.55;;;1.70;;
52180;SDS011;38158;53.338;6.514;2022-10-16T00:57:02;9.55;;;1.30;;
52180;SDS011;38158;53.338;6.514;2022-10-16T00:59:32;7.97;;;1.40;;
52180;SDS011;38158;53.338;6.514;2022-10-16T01:02:00;9.55;;;1.40;;
52180;SDS011;38158;53.338;6.514;2022-10-16T01:04:28;7.68;;;1.10;;
52180;SDS011;38158;53.338;6.514;2022-10-16T01:09:31;6.13;;;1.40;;
52180;SDS011;38158;53.338;6.514;2022-10-16T01:20:27;7.30;;;1.30;;
52180;SDS011;38158;53.338;6.514;2022-10-16T01:22:58;6.93;;;1.20;;
52180;SDS011;38158;53.338;6.514;2022-10-16T01:28:28;6.10;;;1.20;;
52180;SDS011;38158;53.338;6.514;2022-10-16T01:31:04;10.35;;;1.55;;
52180;SDS011;38158;53.338;6.514;2022-10-16T01:33:35;10.98;;;1.33;;
52180;SDS011;38158;53.338;6.514;2022-10-16T01:36:11;8.70;;;1.50;;
52180;SDS011;38158;53.338;6.514;2022-10-16T01:38:40;10.55;;;1.55;;
52180;SDS011;38158;53.338;6.514;2022-10-16T01:41:10;4.70;;;1.20;;
52180;SDS011;38158;53.338;6.514;2022-10-16T01:43:49;7.25;;;1.20;;
52180;SDS011;38158;53.338;6.514;2022-10-16T01:46:20;8.77;;;1.60;;
52180;SDS011;38158;53.338;6.514;2022-10-16T01:51:14;6.57;;;1.15;;
52180;SDS011;38158;53.338;6.514;2022-10-16T01:53:43;10.13;;;1.85;;
52180;SDS011;38158;53.338;6.514;2022-10-16T01:56:12;5.88;;;1.52;;
52180;SDS011;38158;53.338;6.514;2022-10-16T01:58:45;3.90;;;0.90;;
52180;SDS011;38158;53.338;6.514;2022-10-16T02:01:35;6.75;;;1.30;;
52180;SDS011;38158;53.338;6.514;2022-10-16T02:04:07;5.80;;;1.40;;
52180;SDS011;38158;53.338;6.514;2022-10-16T02:06:37;3.97;;;0.98;;
52180;SDS011;38158;53.338;6.514;2022-10-16T02:09:03;5.97;;;1.20;;
52180;SDS011;38158;53.338;6.514;2022-10-16T02:11:29;8.02;;;1.20;;
52180;SDS011;38158;53.338;6.514;2022-10-16T02:13:55;6.85;;;1.00;;
52180;SDS011;38158;53.338;6.514;2022-10-16T02:16:33;6.97;;;1.15;;
52180;SDS011;38158;53.338;6.514;2022-10-16T02:19:07;5.70;;;1.10;;
52180;SDS011;38158;53.338;6.514;2022-10-16T02:21:44;6.75;;;1.58;;
52180;SDS011;38158;53.338;6.514;2022-10-16T02:24:31;6.38;;;1.20;;
52180;SDS011;38158;53.338;6.514;2022-10-16T02:29:33;6.72;;;1.40;;
52180;SDS011;38158;53.338;6.514;2022-10-16T02:32:09;4.75;;;1.10;;
52180;SDS011;38158;53.338;6.514;2022-10-16T02:34:38;4.65;;;1.38;;
52180;SDS011;38158;53.338;6.514;2022-10-16T02:37:05;4.63;;;1.27;;
52180;SDS011;38158;53.338;6.514;2022-10-16T02:39:32;7.45;;;1.30;;
52180;SDS011;38158;53.338;6.514;2022-10-16T02:41:59;7.50;;;1.33;;
52180;SDS011;38158;53.338;6.514;2022-10-16T02:44:25;7.60;;;1.50;;
52180;SDS011;38158;53.338;6.514;2022-10-16T02:46:50;6.93;;;1.48;;
52180;SDS011;38158;53.338;6.514;2022-10-16T02:49:16;6.93;;;1.33;;
52180;SDS011;38158;53.338;6.514;2022-10-16T02:51:43;4.72;;;1.50;;
52180;SDS011;38158;53.338;6.514;2022-10-16T02:54:08;7.25;;;1.27;;
52180;SDS011;38158;53.338;6.514;2022-10-16T02:56:34;7.47;;;1.90;;
52180;SDS011;38158;53.338;6.514;2022-10-16T02:59:00;9.25;;;1.38;;
52180;SDS011;38158;53.338;6.514;2022-10-16T03:01:25;3.58;;;1.00;;
52180;SDS011;38158;53.338;6.514;2022-10-16T03:03:51;4.03;;;1.17;;
52180;SDS011;38158;53.338;6.514;2022-10-16T03:06:17;7.95;;;1.95;;
52180;SDS011;38158;53.338;6.514;2022-10-16T03:08:42;5.95;;;1.73;;
52180;SDS011;38158;53.338;6.514;2022-10-16T03:11:08;6.30;;;1.40;;
52180;SDS011;38158;53.338;6.514;2022-10-16T03:13:34;6.68;;;1.58;;
52180;SDS011;38158;53.338;6.514;2022-10-16T03:15:59;6.22;;;1.30;;
52180;SDS011;38158;53.338;6.514;2022-10-16T03:18:25;6.30;;;1.30;;
52180;SDS011;38158;53.338;6.514;2022-10-16T03:20:51;4.65;;;1.17;;
52180;SDS011;38158;53.338;6.514;2022-10-16T03:23:16;6.70;;;1.13;;
52180;SDS011;38158;53.338;6.514;2022-10-16T03:25:42;7.30;;;1.67;;
52180;SDS011;38158;53.338;6.514;2022-10-16T03:28:08;6.43;;;1.33;;
52180;SDS011;38158;53.338;6.514;2022-10-16T03:30:34;3.63;;;1.38;;
52180;SDS011;38158;53.338;6.514;2022-10-16T03:32:59;4.53;;;1.10;;
52180;SDS011;38158;53.338;6.514;2022-10-16T03:35:25;5.57;;;1.23;;
52180;SDS011;38158;53.338;6.514;2022-10-16T03:37:51;4.28;;;1.30;;
52180;SDS011;38158;53.338;6.514;2022-10-16T03:40:17;5.72;;;1.20;;
52180;SDS011;38158;53.338;6.514;2022-10-16T03:42:43;4.88;;;1.17;;
52180;SDS011;38158;53.338;6.514;2022-10-16T03:45:09;5.38;;;1.30;;
52180;SDS011;38158;53.338;6.514;2022-10-16T03:47:35;3.25;;;1.50;;
52180;SDS011;38158;53.338;6.514;2022-10-16T03:50:01;3.97;;;1.20;;
52180;SDS011;38158;53.338;6.514;2022-10-16T03:52:27;3.60;;;1.00;;
52180;SDS011;38158;53.338;6.514;2022-10-16T03:54:53;3.97;;;1.42;;
52180;SDS011;38158;53.338;6.514;2022-10-16T03:57:18;2.72;;;0.98;;
52180;SDS011;38158;53.338;6.514;2022-10-16T03:59:45;3.25;;;1.10;;
52180;SDS011;38158;53.338;6.514;2022-10-16T04:02:11;3.10;;;1.25;;
52180;SDS011;38158;53.338;6.514;2022-10-16T04:04:38;5.13;;;1.50;;
52180;SDS011;38158;53.338;6.514;2022-10-16T04:07:04;5.95;;;1.10;;
52180;SDS011;38158;53.338;6.514;2022-10-16T04:09:30;4.63;;;1.15;;
52180;SDS011;38158;53.338;6.514;2022-10-16T04:11:55;6.10;;;1.13;;
52180;SDS011;38158;53.338;6.514;2022-10-16T04:14:21;7.00;;;1.40;;
52180;SDS011;38158;53.338;6.514;2022-10-16T04:16:47;5.93;;;1.35;;
52180;SDS011;38158;53.338;6.514;2022-10-16T04:19:12;7.18;;;1.60;;
52180;SDS011;38158;53.338;6.514;2022-10-16T04:21:38;4.57;;;1.10;;
52180;SDS011;38158;53.338;6.514;2022-10-16T04:24:04;3.08;;;1.23;;
52180;SDS011;38158;53.338;6.514;2022-10-16T04:26:29;5.43;;;1.40;;
52180;SDS011;38158;53.338;6.514;2022-10-16T04:28:56;4.45;;;1.30;;
52180;SDS011;38158;53.338;6.514;2022-10-16T04:31:22;2.85;;;1.10;;
52180;SDS011;38158;53.338;6.514;2022-10-16T04:33:47;3.65;;;1.50;;
52180;SDS011;38158;53.338;6.514;2022-10-16T04:36:13;6.65;;;1.17;;
52180;SDS011;38158;53.338;6.514;2022-10-16T04:38:39;5.60;;;1.58;;
52180;SDS011;38158;53.338;6.514;2022-10-16T04:41:05;6.03;;;1.50;;
52180;SDS011;38158;53.338;6.514;2022-10-16T04:43:32;3.55;;;1.15;;
52180;SDS011;38158;53.338;6.514;2022-10-16T04:45:58;4.07;;;1.25;;
52180;SDS011;38158;53.338;6.514;2022-10-16T04:48:24;7.13;;;1.20;;
52180;SDS011;38158;53.338;6.514;2022-10-16T04:50:50;6.35;;;2.33;;
52180;SDS011;38158;53.338;6.514;2022-10-16T04:53:15;4.10;;;1.38;;
52180;SDS011;38158;53.338;6.514;2022-10-16T04:55:41;6.88;;;1.50;;
52180;SDS011;38158;53.338;6.514;2022-10-16T04:58:07;3.35;;;1.15;;
52180;SDS011;38158;53.338;6.514;2022-10-16T05:00:33;2.47;;;1.20;;
52180;SDS011;38158;53.338;6.514;2022-10-16T05:02:59;4.60;;;1.40;;
52180;SDS011;38158;53.338;6.514;2022-10-16T05:05:26;6.47;;;1.50;;
52180;SDS011;38158;53.338;6.514;2022-10-16T05:07:53;5.30;;;1.38;;
52180;SDS011;38158;53.338;6.514;2022-10-16T05:10:19;5.75;;;1.30;;
52180;SDS011;38158;53.338;6.514;2022-10-16T05:12:45;4.82;;;1.40;;
52180;SDS011;38158;53.338;6.514;2022-10-16T05:15:11;4.80;;;1.52;;
52180;SDS011;38158;53.338;6.514;2022-10-16T05:17:37;6.43;;;1.30;;
52180;SDS011;38158;53.338;6.514;2022-10-16T05:20:03;7.07;;;1.75;;
52180;SDS011;38158;53.338;6.514;2022-10-16T05:22:29;6.70;;;1.10;;
52180;SDS011;38158;53.338;6.514;2022-10-16T05:24:55;7.63;;;1.40;;
52180;SDS011;38158;53.338;6.514;2022-10-16T05:27:20;3.55;;;1.50;;
52180;SDS011;38158;53.338;6.514;2022-10-16T05:29:46;4.07;;;1.50;;
52180;SDS011;38158;53.338;6.514;2022-10-16T05:32:13;5.50;;;1.30;;
52180;SDS011;38158;53.338;6.514;2022-10-16T05:34:40;6.20;;;1.40;;
52180;SDS011;38158;53.338;6.514;2022-10-16T05:37:06;6.05;;;1.35;;
52180;SDS011;38158;53.338;6.514;2022-10-16T05:39:32;7.07;;;1.67;;
52180;SDS011;38158;53.338;6.514;2022-10-16T05:41:57;6.03;;;1.40;;
52180;SDS011;38158;53.338;6.514;2022-10-16T05:44:23;7.60;;;1.45;;
52180;SDS011;38158;53.338;6.514;2022-10-16T05:46:49;7.97;;;1.42;;
52180;SDS011;38158;53.338;6.514;2022-10-16T05:49:15;6.28;;;1.50;;
52180;SDS011;38158;53.338;6.514;2022-10-16T05:51:40;5.40;;;1.60;;
52180;SDS011;38158;53.338;6.514;2022-10-16T05:54:06;5.53;;;1.40;;
52180;SDS011;38158;53.338;6.514;2022-10-16T05:56:33;7.10;;;2.05;;
52180;SDS011;38158;53.338;6.514;2022-10-16T05:58:58;3.75;;;1.52;;
52180;SDS011;38158;53.338;6.514;2022-10-16T06:01:24;5.43;;;1.55;;
52180;SDS011;38158;53.338;6.514;2022-10-16T06:03:50;4.50;;;1.85;;
52180;SDS011;38158;53.338;6.514;2022-10-16T06:06:17;6.35;;;2.22;;
52180;SDS011;38158;53.338;6.514;2022-10-16T06:08:48;8.18;;;2.17;;
52180;SDS011;38158;53.338;6.514;2022-10-16T06:11:19;7.95;;;1.80;;
52180;SDS011;38158;53.338;6.514;2022-10-16T06:13:50;7.63;;;2.15;;
52180;SDS011;38158;53.338;6.514;2022-10-16T06:16:16;6.85;;;2.20;;
52180;SDS011;38158;53.338;6.514;2022-10-16T06:18:43;8.20;;;2.10;;
52180;SDS011;38158;53.338;6.514;2022-10-16T06:21:09;6.80;;;2.05;;
52180;SDS011;38158;53.338;6.514;2022-10-16T06:23:37;5.47;;;2.13;;
52180;SDS011;38158;53.338;6.514;2022-10-16T06:26:09;7.05;;;2.85;;
52180;SDS011;38158;53.338;6.514;2022-10-16T06:28:37;8.32;;;1.88;;
52180;SDS011;38158;53.338;6.514;2022-10-16T06:31:04;9.30;;;1.83;;
52180;SDS011;38158;53.338;6.514;2022-10-16T06:36:00;6.47;;;2.00;;
52180;SDS011;38158;53.338;6.514;2022-10-16T06:38:30;5.93;;;2.50;;
52180;SDS011;38158;53.338;6.514;2022-10-16T06:40:57;10.93;;;3.00;;
52180;SDS011;38158;53.338;6.514;2022-10-16T06:43:23;5.35;;;2.30;;
52180;SDS011;38158;53.338;6.514;2022-10-16T06:45:50;6.25;;;2.00;;
52180;SDS011;38158;53.338;6.514;2022-10-16T06:48:17;10.25;;;2.28;;
52180;SDS011;38158;53.338;6.514;2022-10-16T06:50:43;5.88;;;2.55;;
52180;SDS011;38158;53.338;6.514;2022-10-16T06:53:09;6.40;;;1.98;;
52180;SDS011;38158;53.338;6.514;2022-10-16T06:55:34;5.97;;;1.85;;
52180;SDS011;38158;53.338;6.514;2022-10-16T06:58:00;6.80;;;1.92;;
52180;SDS011;38158;53.338;6.514;2022-10-16T07:00:26;7.57;;;1.98;;
52180;SDS011;38158;53.338;6.514;2022-10-16T07:02:51;7.15;;;2.00;;
52180;SDS011;38158;53.338;6.514;2022-10-16T07:05:17;6.15;;;2.10;;
52180;SDS011;38158;53.338;6.514;2022-10-16T07:07:43;8.70;;;2.13;;
52180;SDS011;38158;53.338;6.514;2022-10-16T07:10:08;9.57;;;2.30;;
52180;SDS011;38158;53.338;6.514;2022-10-16T07:12:34;4.35;;;2.00;;
52180;SDS011;38158;53.338;6.514;2022-10-16T07:14:59;7.63;;;1.90;;
52180;SDS011;38158;53.338;6.514;2022-10-16T07:17:25;7.32;;;2.20;;
52180;SDS011;38158;53.338;6.514;2022-10-16T07:19:51;8.55;;;2.28;;
52180;SDS011;38158;53.338;6.514;2022-10-16T07:22:18;8.73;;;2.10;;
52180;SDS011;38158;53.338;6.514;2022-10-16T07:24:43;6.93;;;2.05;;
52180;SDS011;38158;53.338;6.514;2022-10-16T07:27:09;6.10;;;2.00;;
52180;SDS011;38158;53.338;6.514;2022-10-16T07:29:35;6.20;;;1.70;;
52180;SDS011;38158;53.338;6.514;2022-10-16T07:32:01;6.45;;;1.80;;
52180;SDS011;38158;53.338;6.514;2022-10-16T07:34:27;7.30;;;2.00;;
52180;SDS011;38158;53.338;6.514;2022-10-16T07:36:53;4.40;;;1.60;;
52180;SDS011;38158;53.338;6.514;2022-10-16T07:39:18;5.40;;;1.60;;
52180;SDS011;38158;53.338;6.514;2022-10-16T07:41:44;6.07;;;1.35;;
52180;SDS011;38158;53.338;6.514;2022-10-16T07:44:10;6.63;;;1.88;;
52180;SDS011;38158;53.338;6.514;2022-10-16T07:46:36;6.85;;;1.42;;
52180;SDS011;38158;53.338;6.514;2022-10-16T07:49:02;5.85;;;1.20;;
52180;SDS011;38158;53.338;6.514;2022-10-16T07:51:28;8.10;;;1.80;;
52180;SDS011;38158;53.338;6.514;2022-10-16T07:53:54;8.10;;;1.80;;
52180;SDS011;38158;53.338;6.514;2022-10-16T07:56:20;6.50;;;1.63;;
52180;SDS011;38158;53.338;6.514;2022-10-16T07:58:46;9.13;;;1.65;;
52180;SDS011;38158;53.338;6.514;2022-10-16T08:01:14;5.13;;;1.20;;
52180;SDS011;38158;53.338;6.514;2022-10-16T08:03:42;8.15;;;1.70;;
52180;SDS011;38158;53.338;6.514;2022-10-16T08:06:11;12.27;;;5.40;;
52180;SDS011;38158;53.338;6.514;2022-10-16T08:08:37;5.03;;;1.30;;
52180;SDS011;38158;53.338;6.514;2022-10-16T08:11:03;5.80;;;1.85;;
52180;SDS011;38158;53.338;6.514;2022-10-16T08:13:30;7.30;;;1.55;;
52180;SDS011;38158;53.338;6.514;2022-10-16T08:15:56;7.97;;;2.33;;
52180;SDS011;38158;53.338;6.514;2022-10-16T08:18:22;6.00;;;1.65;;
52180;SDS011;38158;53.338;6.514;2022-10-16T08:20:47;4.70;;;2.15;;
52180;SDS011;38158;53.338;6.514;2022-10-16T08:23:19;6.45;;;2.08;;
52180;SDS011;38158;53.338;6.514;2022-10-16T08:25:45;6.35;;;1.40;;
52180;SDS011;38158;53.338;6.514;2022-10-16T08:28:11;8.77;;;2.58;;
52180;SDS011;38158;53.338;6.514;2022-10-16T08:30:37;7.82;;;1.80;;
52180;SDS011;38158;53.338;6.514;2022-10-16T08:33:03;5.60;;;1.73;;
52180;SDS011;38158;53.338;6.514;2022-10-16T08:35:29;6.40;;;2.05;;
52180;SDS011;38158;53.338;6.514;2022-10-16T08:37:54;5.03;;;1.65;;
52180;SDS011;38158;53.338;6.514;2022-10-16T08:40:30;6.85;;;1.70;;
52180;SDS011;38158;53.338;6.514;2022-10-16T08:45:41;4.63;;;1.50;;
52180;SDS011;38158;53.338;6.514;2022-10-16T08:51:06;5.78;;;1.50;;
52180;SDS011;38158;53.338;6.514;2022-10-16T08:53:36;8.13;;;1.42;;
52180;SDS011;38158;53.338;6.514;2022-10-16T08:56:11;5.05;;;1.63;;
52180;SDS011;38158;53.338;6.514;2022-10-16T08:58:37;7.05;;;1.42;;
52180;SDS011;38158;53.338;6.514;2022-10-16T09:01:03;6.40;;;1.40;;
52180;SDS011;38158;53.338;6.514;2022-10-16T09:06:25;5.75;;;1.77;;
52180;SDS011;38158;53.338;6.514;2022-10-16T09:12:00;5.82;;;1.17;;
52180;SDS011;38158;53.338;6.514;2022-10-16T09:14:41;6.10;;;1.30;;
52180;SDS011;38158;53.338;6.514;2022-10-16T09:20:10;5.28;;;1.30;;
52180;SDS011;38158;53.338;6.514;2022-10-16T09:22:37;7.88;;;1.63;;
52180;SDS011;38158;53.338;6.514;2022-10-16T09:25:11;11.75;;;2.25;;
52180;SDS011;38158;53.338;6.514;2022-10-16T09:27:40;5.47;;;1.48;;
52180;SDS011;38158;53.338;6.514;2022-10-16T09:30:14;6.70;;;1.48;;
52180;SDS011;38158;53.338;6.514;2022-10-16T09:32:42;9.10;;;1.73;;
52180;SDS011;38158;53.338;6.514;2022-10-16T09:35:14;8.70;;;1.83;;
52180;SDS011;38158;53.338;6.514;2022-10-16T09:37:43;6.72;;;1.33;;
52180;SDS011;38158;53.338;6.514;2022-10-16T09:40:12;12.82;;;1.70;;
52180;SDS011;38158;53.338;6.514;2022-10-16T09:42:48;10.90;;;2.03;;
52180;SDS011;38158;53.338;6.514;2022-10-16T09:45:23;9.02;;;1.33;;
52180;SDS011;38158;53.338;6.514;2022-10-16T09:47:49;15.25;;;2.70;;
52180;SDS011;38158;53.338;6.514;2022-10-16T09:50:22;10.40;;;1.90;;
52180;SDS011;38158;53.338;6.514;2022-10-16T09:53:02;9.10;;;1.80;;
52180;SDS011;38158;53.338;6.514;2022-10-16T09:55:36;14.00;;;1.90;;
52180;SDS011;38158;53.338;6.514;2022-10-16T09:58:14;12.70;;;2.78;;
52180;SDS011;38158;53.338;6.514;2022-10-16T10:00:39;11.45;;;1.52;;
52180;SDS011;38158;53.338;6.514;2022-10-16T10:03:15;10.18;;;1.55;;
52180;SDS011;38158;53.338;6.514;2022-10-16T10:06:03;12.68;;;2.10;;
52180;SDS011;38158;53.338;6.514;2022-10-16T10:09:44;11.73;;;2.42;;
52180;SDS011;38158;53.338;6.514;2022-10-16T10:12:25;11.82;;;2.17;;
52180;SDS011;38158;53.338;6.514;2022-10-16T10:14:31;9.43;;;1.55;;
52180;SDS011;38158;53.338;6.514;2022-10-16T10:19:47;13.45;;;2.33;;
52180;SDS011;38158;53.338;6.514;2022-10-16T10:22:31;13.52;;;2.05;;
52180;SDS011;38158;53.338;6.514;2022-10-16T10:30:45;9.60;;;1.48;;
52180;SDS011;38158;53.338;6.514;2022-10-16T10:55:31;15.43;;;2.08;;
52180;SDS011;38158;53.338;6.514;2022-10-16T11:06:06;9.43;;;1.70;;
52180;SDS011;38158;53.338;6.514;2022-10-16T11:08:45;17.75;;;3.03;;
52180;SDS011;38158;53.338;6.514;2022-10-16T11:11:17;5.63;;;1.10;;
52180;SDS011;38158;53.338;6.514;2022-10-16T11:16:58;12.80;;;1.80;;
52180;SDS011;38158;53.338;6.514;2022-10-16T11:22:30;13.68;;;1.88;;
52180;SDS011;38158;53.338;6.514;2022-10-16T11:27:50;12.30;;;2.22;;
52180;SDS011;38158;53.338;6.514;2022-10-16T11:36:31;13.80;;;1.52;;
52180;SDS011;38158;53.338;6.514;2022-10-16T11:39:24;11.52;;;1.80;;
52180;SDS011;38158;53.338;6.514;2022-10-16T11:47:19;12.90;;;1.98;;
52180;SDS011;38158;53.338;6.514;2022-10-16T11:49:53;11.70;;;2.05;;
52180;SDS011;38158;53.338;6.514;2022-10-16T11:52:40;9.70;;;2.28;;
52180;SDS011;38158;53.338;6.514;2022-10-16T11:55:17;15.77;;;2.15;;
52180;SDS011;38158;53.338;6.514;2022-10-16T11:58:07;13.68;;;2.00;;
52180;SDS011;38158;53.338;6.514;2022-10-16T12:00:40;13.38;;;2.20;;
52180;SDS011;38158;53.338;6.514;2022-10-16T12:03:26;15.60;;;3.25;;
52180;SDS011;38158;53.338;6.514;2022-10-16T12:06:11;14.50;;;1.67;;
52180;SDS011;38158;53.338;6.514;2022-10-16T12:08:54;11.30;;;1.50;;
52180;SDS011;38158;53.338;6.514;2022-10-16T12:16:37;7.93;;;1.25;;
52180;SDS011;38158;53.338;6.514;2022-10-16T12:19:30;9.23;;;1.15;;
52180;SDS011;38158;53.338;6.514;2022-10-16T12:21:58;7.75;;;1.10;;
52180;SDS011;38158;53.338;6.514;2022-10-16T12:26:53;8.07;;;1.17;;
52180;SDS011;38158;53.338;6.514;2022-10-16T12:31:48;13.32;;;1.42;;
52180;SDS011;38158;53.338;6.514;2022-10-16T12:34:23;10.65;;;1.55;;
52180;SDS011;38158;53.338;6.514;2022-10-16T12:36:52;6.15;;;1.00;;
52180;SDS011;38158;53.338;6.514;2022-10-16T12:39:23;12.63;;;1.40;;
52180;SDS011;38158;53.338;6.514;2022-10-16T12:44:50;8.73;;;1.38;;
52180;SDS011;38158;53.338;6.514;2022-10-16T12:49:57;15.90;;;1.85;;
52180;SDS011;38158;53.338;6.514;2022-10-16T12:52:25;12.80;;;2.97;;
52180;SDS011;38158;53.338;6.514;2022-10-16T12:55:14;9.50;;;2.03;;
52180;SDS011;38158;53.338;6.514;2022-10-16T13:00:38;12.40;;;1.95;;
52180;SDS011;38158;53.338;6.514;2022-10-16T13:14:36;9.77;;;1.08;;
52180;SDS011;38158;53.338;6.514;2022-10-16T13:28:19;13.77;;;2.00;;
52180;SDS011;38158;53.338;6.514;2022-10-16T13:30:51;7.68;;;1.30;;
52180;SDS011;38158;53.338;6.514;2022-10-16T13:33:35;13.13;;;1.65;;
52180;SDS011;38158;53.338;6.514;2022-10-16T13:36:03;14.30;;;1.60;;
52180;SDS011;38158;53.338;6.514;2022-10-16T13:38:30;12.13;;;1.73;;
52180;SDS011;38158;53.338;6.514;2022-10-16T13:41:13;12.75;;;1.90;;
52180;SDS011;38158;53.338;6.514;2022-10-16T13:43:43;14.90;;;1.85;;
52180;SDS011;38158;53.338;6.514;2022-10-16T13:46:13;13.40;;;1.75;;
52180;SDS011;38158;53.338;6.514;2022-10-16T13:48:44;13.30;;;1.65;;
52180;SDS011;38158;53.338;6.514;2022-10-16T13:51:21;13.73;;;2.13;;
52180;SDS011;38158;53.338;6.514;2022-10-16T13:53:47;13.30;;;1.38;;
52180;SDS011;38158;53.338;6.514;2022-10-16T13:56:14;15.27;;;1.80;;
52180;SDS011;38158;53.338;6.514;2022-10-16T13:58:42;11.18;;;1.38;;
52180;SDS011;38158;53.338;6.514;2022-10-16T14:03:51;12.52;;;1.58;;
52180;SDS011;38158;53.338;6.514;2022-10-16T14:06:20;15.10;;;1.67;;
52180;SDS011;38158;53.338;6.514;2022-10-16T14:08:53;16.23;;;1.63;;
52180;SDS011;38158;53.338;6.514;2022-10-16T14:11:27;16.00;;;1.88;;
52180;SDS011;38158;53.338;6.514;2022-10-16T14:13:53;13.75;;;1.33;;
52180;SDS011;38158;53.338;6.514;2022-10-16T14:16:20;8.87;;;1.67;;
52180;SDS011;38158;53.338;6.514;2022-10-16T14:19:01;11.23;;;1.77;;
52180;SDS011;38158;53.338;6.514;2022-10-16T14:21:31;10.20;;;2.15;;
52180;SDS011;38158;53.338;6.514;2022-10-16T14:23:58;10.85;;;1.83;;
52180;SDS011;38158;53.338;6.514;2022-10-16T14:26:26;8.70;;;2.13;;
52180;SDS011;38158;53.338;6.514;2022-10-16T14:31:39;11.88;;;1.75;;
52180;SDS011;38158;53.338;6.514;2022-10-16T14:34:22;7.25;;;1.30;;
52180;SDS011;38158;53.338;6.514;2022-10-16T14:36:49;16.60;;;1.85;;
52180;SDS011;38158;53.338;6.514;2022-10-16T14:39:19;12.20;;;1.77;;
52180;SDS011;38158;53.338;6.514;2022-10-16T14:41:48;13.65;;;1.67;;
52180;SDS011;38158;53.338;6.514;2022-10-16T14:44:14;11.07;;;1.98;;
52180;SDS011;38158;53.338;6.514;2022-10-16T14:46:43;11.73;;;2.03;;
52180;SDS011;38158;53.338;6.514;2022-10-16T14:51:39;13.05;;;1.83;;
52180;SDS011;38158;53.338;6.514;2022-10-16T14:54:11;10.45;;;1.85;;
52180;SDS011;38158;53.338;6.514;2022-10-16T14:59:28;10.90;;;4.05;;
52180;SDS011;38158;53.338;6.514;2022-10-16T15:01:57;14.27;;;2.45;;
52180;SDS011;38158;53.338;6.514;2022-10-16T15:04:23;18.70;;;3.03;;
52180;SDS011;38158;53.338;6.514;2022-10-16T15:06:49;10.93;;;1.80;;
52180;SDS011;38158;53.338;6.514;2022-10-16T15:09:14;10.48;;;1.85;;
52180;SDS011;38158;53.338;6.514;2022-10-16T15:11:40;11.68;;;1.90;;
52180;SDS011;38158;53.338;6.514;2022-10-16T15:14:09;14.20;;;1.98;;
52180;SDS011;38158;53.338;6.514;2022-10-16T15:16:37;8.90;;;1.48;;
52180;SDS011;38158;53.338;6.514;2022-10-16T15:19:03;9.50;;;1.60;;
52180;SDS011;38158;53.338;6.514;2022-10-16T15:21:30;11.95;;;1.80;;
52180;SDS011;38158;53.338;6.514;2022-10-16T15:23:57;11.48;;;2.33;;
52180;SDS011;38158;53.338;6.514;2022-10-16T15:26:24;16.58;;;2.00;;
52180;SDS011;38158;53.338;6.514;2022-10-16T15:31:16;10.88;;;1.63;;
52180;SDS011;38158;53.338;6.514;2022-10-16T15:33:43;13.25;;;2.33;;
52180;SDS011;38158;53.338;6.514;2022-10-16T15:36:08;11.52;;;2.60;;
52180;SDS011;38158;53.338;6.514;2022-10-16T15:38:35;15.82;;;4.55;;
52180;SDS011;38158;53.338;6.514;2022-10-16T15:41:01;12.32;;;4.22;;
52180;SDS011;38158;53.338;6.514;2022-10-16T15:43:26;13.15;;;4.20;;
52180;SDS011;38158;53.338;6.514;2022-10-16T15:46:00;14.63;;;3.55;;
52180;SDS011;38158;53.338;6.514;2022-10-16T15:48:31;18.70;;;4.28;;
52180;SDS011;38158;53.338;6.514;2022-10-16T15:50:57;11.20;;;2.97;;
52180;SDS011;38158;53.338;6.514;2022-10-16T15:53:23;14.63;;;3.15;;
52180;SDS011;38158;53.338;6.514;2022-10-16T15:55:49;17.92;;;3.67;;
52180;SDS011;38158;53.338;6.514;2022-10-16T15:58:15;16.02;;;3.22;;
52180;SDS011;38158;53.338;6.514;2022-10-16T16:00:40;12.00;;;2.45;;
52180;SDS011;38158;53.338;6.514;2022-10-16T16:03:06;14.48;;;2.50;;
52180;SDS011;38158;53.338;6.514;2022-10-16T16:05:32;10.23;;;2.75;;
52180;SDS011;38158;53.338;6.514;2022-10-16T16:07:58;9.77;;;2.63;;
52180;SDS011;38158;53.338;6.514;2022-10-16T16:10:24;13.40;;;2.33;;
52180;SDS011;38158;53.338;6.514;2022-10-16T16:12:50;13.60;;;2.28;;
52180;SDS011;38158;53.338;6.514;2022-10-16T16:15:18;11.05;;;2.58;;
52180;SDS011;38158;53.338;6.514;2022-10-16T16:17:45;12.52;;;2.20;;
52180;SDS011;38158;53.338;6.514;2022-10-16T16:20:11;11.65;;;2.72;;
52180;SDS011;38158;53.338;6.514;2022-10-16T16:22:37;15.20;;;2.65;;
52180;SDS011;38158;53.338;6.514;2022-10-16T16:25:03;11.27;;;2.40;;
52180;SDS011;38158;53.338;6.514;2022-10-16T16:27:29;9.40;;;2.20;;
52180;SDS011;38158;53.338;6.514;2022-10-16T16:29:58;11.30;;;2.20;;
52180;SDS011;38158;53.338;6.514;2022-10-16T16:32:24;13.35;;;2.63;;
52180;SDS011;38158;53.338;6.514;2022-10-16T16:34:50;14.18;;;2.83;;
52180;SDS011;38158;53.338;6.514;2022-10-16T16:37:16;15.82;;;3.97;;
52180;SDS011;38158;53.338;6.514;2022-10-16T16:39:42;13.77;;;3.10;;
52180;SDS011;38158;53.338;6.514;2022-10-16T16:42:07;13.13;;;3.38;;
52180;SDS011;38158;53.338;6.514;2022-10-16T16:44:35;23.75;;;7.35;;
52180;SDS011;38158;53.338;6.514;2022-10-16T16:47:01;18.70;;;5.22;;
52180;SDS011;38158;53.338;6.514;2022-10-16T16:49:28;16.98;;;3.58;;
52180;SDS011;38158;53.338;6.514;2022-10-16T16:51:54;15.27;;;3.08;;
52180;SDS011;38158;53.338;6.514;2022-10-16T16:54:20;11.82;;;2.70;;
52180;SDS011;38158;53.338;6.514;2022-10-16T16:56:45;12.40;;;2.40;;
52180;SDS011;38158;53.338;6.514;2022-10-16T16:59:15;20.58;;;2.75;;
52180;SDS011;38158;53.338;6.514;2022-10-16T17:01:44;15.70;;;3.53;;
52180;SDS011;38158;53.338;6.514;2022-10-16T17:04:11;8.93;;;2.05;;
52180;SDS011;38158;53.338;6.514;2022-10-16T17:06:37;15.30;;;2.30;;
52180;SDS011;38158;53.338;6.514;2022-10-16T17:09:03;11.13;;;1.83;;
52180;SDS011;38158;53.338;6.514;2022-10-16T17:11:30;8.90;;;2.15;;
52180;SDS011;38158;53.338;6.514;2022-10-16T17:13:56;15.95;;;4.53;;
52180;SDS011;38158;53.338;6.514;2022-10-16T17:16:24;17.98;;;5.05;;
52180;SDS011;38158;53.338;6.514;2022-10-16T17:18:59;20.05;;;6.50;;
52180;SDS011;38158;53.338;6.514;2022-10-16T17:21:28;18.63;;;7.78;;
52180;SDS011;38158;53.338;6.514;2022-10-16T17:23:55;20.63;;;7.60;;